Time;durP1;ratioP1;P1;durP2;ratioP2;P2;SDS_P1;SDS_P2;PMS_P1;PMS_P2;Temp;Humidity;BMP_temperature;BMP_pressure;BME280_temperature;BME280_humidity;BME280_pressure;Samples;Min_cycle;Max_cycle;Signal;HPM_P1;HPM_P2
2021/11/08 00:02:30;;;;;;;8.87;5.80;;;;;;;;;;4924446;29;20187;-88
2021/11/08 00:05:41;;;;;;;8.27;5.90;;;;;;;;;;4929347;29;20196;-88
2021/11/08 00:08:45;;;;;;;7.03;5.53;;;;;;;;;;4934647;29;20654;-88
2021/11/08 00:11:49;;;;;;;9.67;5.57;;;;;;;;;;4924165;29;20184;-88
2021/11/08 00:14:57;;;;;;;9.40;5.20;;;;;;;;;;4924533;29;20180;-88
2021/11/08 00:18:49;;;;;;;11.13;5.83;;;;;;;;;;4905720;29;20184;-88
2021/11/08 00:21:32;;;;;;;9.27;5.47;;;;;;;;;;4942257;28;20191;-88
2021/11/08 00:24:39;;;;;;;8.37;5.50;;;;;;;;;;4945648;29;20199;-88
2021/11/08 00:27:43;;;;;;;10.27;5.77;;;;;;;;;;4934592;29;20662;-88
2021/11/08 00:30:49;;;;;;;7.63;5.23;;;;;;;;;;4923193;29;20231;-88
2021/11/08 00:33:54;;;;;;;10.53;5.60;;;;;;;;;;4924173;29;20196;-88
2021/11/08 00:36:58;;;;;;;9.60;5.27;;;;;;;;;;4934213;29;20195;-88
2021/11/08 00:40:04;;;;;;;6.90;4.97;;;;;;;;;;4944952;29;20219;-88
2021/11/08 00:43:09;;;;;;;9.43;5.63;;;;;;;;;;4934961;29;20635;-88
2021/11/08 00:46:13;;;;;;;7.37;5.10;;;;;;;;;;4944881;29;20199;-88
2021/11/08 00:49:17;;;;;;;8.70;4.97;;;;;;;;;;4925011;28;20223;-88
2021/11/08 00:52:22;;;;;;;7.67;5.17;;;;;;;;;;4934428;29;20195;-88
2021/11/08 00:55:29;;;;;;;9.90;5.30;;;;;;;;;;4926267;29;20200;-88
2021/11/08 00:58:36;;;;;;;6.60;4.60;;;;;;;;;;4920662;29;20204;-88
2021/11/08 01:01:42;;;;;;;10.17;4.70;;;;;;;;;;4937670;29;20204;-88
2021/11/08 01:04:46;;;;;;;7.43;4.60;;;;;;;;;;4934323;29;20207;-87
2021/11/08 01:07:50;;;;;;;8.87;4.73;;;;;;;;;;4933774;29;20195;-88
2021/11/08 01:10:54;;;;;;;7.37;4.77;;;;;;;;;;4922825;29;20706;-88
2021/11/08 01:13:58;;;;;;;9.03;4.13;;;;;;;;;;4934324;29;20184;-88
2021/11/08 01:17:04;;;;;;;9.57;4.57;;;;;;;;;;4923200;29;20647;-88
2021/11/08 01:20:10;;;;;;;8.13;4.30;;;;;;;;;;4927268;29;20216;-88
2021/11/08 01:23:18;;;;;;;9.13;4.07;;;;;;;;;;4933579;29;20195;-88
2021/11/08 01:26:22;;;;;;;10.90;4.53;;;;;;;;;;4933175;29;20668;-88
2021/11/08 01:29:26;;;;;;;7.03;4.30;;;;;;;;;;4933834;28;20610;-88
2021/11/08 01:32:30;;;;;;;7.97;3.87;;;;;;;;;;4922911;29;20192;-88
2021/11/08 01:38:48;;;;;;;7.80;4.30;;;;;;;;;;4933792;29;20195;-88
2021/11/08 01:41:52;;;;;;;5.50;3.80;;;;;;;;;;4922038;29;20196;-88
2021/11/08 01:44:57;;;;;;;9.37;4.10;;;;;;;;;;4922500;29;20203;-88
2021/11/08 01:48:01;;;;;;;6.00;4.00;;;;;;;;;;4944125;29;20199;-88
2021/11/08 01:51:05;;;;;;;6.70;3.90;;;;;;;;;;4919002;29;20227;-88
2021/11/08 01:54:10;;;;;;;11.00;4.70;;;;;;;;;;4933136;29;20199;-88
2021/11/08 01:57:14;;;;;;;9.63;4.00;;;;;;;;;;4922044;29;20199;-88
2021/11/08 02:00:21;;;;;;;9.47;4.20;;;;;;;;;;4922053;29;20223;-88
2021/11/08 02:03:26;;;;;;;6.90;4.50;;;;;;;;;;4914378;29;20180;-88
2021/11/08 02:06:30;;;;;;;7.53;3.90;;;;;;;;;;4925594;29;20191;-88
2021/11/08 02:09:35;;;;;;;10.27;4.17;;;;;;;;;;4921095;29;20219;-88
2021/11/08 02:12:39;;;;;;;9.33;4.33;;;;;;;;;;4921696;29;20183;-88
2021/11/08 02:15:43;;;;;;;7.40;4.10;;;;;;;;;;4943732;29;20204;-88
2021/11/08 02:18:47;;;;;;;9.30;4.53;;;;;;;;;;4920909;29;20188;-88
2021/11/08 02:21:52;;;;;;;9.20;4.40;;;;;;;;;;4921765;29;20191;-88
2021/11/08 02:24:56;;;;;;;10.17;4.30;;;;;;;;;;4932642;29;20658;-88
2021/11/08 02:28:01;;;;;;;9.87;4.03;;;;;;;;;;4921855;29;20195;-88
2021/11/08 02:31:06;;;;;;;7.13;4.10;;;;;;;;;;4932292;29;20223;-88
2021/11/08 02:34:11;;;;;;;11.47;4.43;;;;;;;;;;4922252;29;20195;-88
2021/11/08 02:37:15;;;;;;;8.90;5.00;;;;;;;;;;4921274;29;20203;-88
2021/11/08 02:40:26;;;;;;;7.30;4.30;;;;;;;;;;4932559;29;20285;-88
2021/11/08 02:43:31;;;;;;;10.57;4.37;;;;;;;;;;4921596;29;20191;-88
2021/11/08 02:46:39;;;;;;;11.00;5.50;;;;;;;;;;4921660;29;20192;-88
2021/11/08 02:49:45;;;;;;;8.40;4.60;;;;;;;;;;4931986;28;20223;-88
2021/11/08 02:52:52;;;;;;;12.00;5.00;;;;;;;;;;4919213;29;20192;-88
2021/11/08 02:55:57;;;;;;;7.87;5.63;;;;;;;;;;4932815;29;20203;-88
2021/11/08 02:59:02;;;;;;;12.53;5.23;;;;;;;;;;4902907;29;20184;-85
2021/11/08 03:02:08;;;;;;;7.27;4.30;;;;;;;;;;4913811;29;20180;-85
2021/11/08 03:05:15;;;;;;;9.77;4.70;;;;;;;;;;4914034;29;20180;-85
2021/11/08 03:08:19;;;;;;;9.50;5.03;;;;;;;;;;4914070;29;20188;-85
2021/11/08 03:11:23;;;;;;;8.40;5.20;;;;;;;;;;4932659;29;20215;-85
2021/11/08 03:14:30;;;;;;;12.40;4.83;;;;;;;;;;4932781;29;20183;-85
2021/11/08 03:17:47;;;;;;;14.83;5.37;;;;;;;;;;4921863;29;20175;-85
2021/11/08 03:20:52;;;;;;;12.17;5.37;;;;;;;;;;4932699;29;20207;-85
2021/11/08 03:24:00;;;;;;;8.73;5.30;;;;;;;;;;4943105;29;20204;-85
2021/11/08 03:27:17;;;;;;;13.97;5.93;;;;;;;;;;4931407;29;20192;-85
2021/11/08 03:30:27;;;;;;;11.40;6.00;;;;;;;;;;4932124;29;20227;-85
2021/11/08 03:33:32;;;;;;;14.17;5.63;;;;;;;;;;4932466;29;20192;-85
2021/11/08 03:36:36;;;;;;;12.27;5.77;;;;;;;;;;4932195;29;20180;-85
2021/11/08 03:39:40;;;;;;;7.67;5.10;;;;;;;;;;4921096;29;20219;-85
2021/11/08 03:42:45;;;;;;;7.13;5.33;;;;;;;;;;4932571;29;20651;-85
2021/11/08 03:45:49;;;;;;;8.53;5.13;;;;;;;;;;4920866;29;20535;-85
2021/11/08 03:48:53;;;;;;;9.43;4.63;;;;;;;;;;4934099;29;20195;-86
2021/11/08 03:51:58;;;;;;;7.23;5.00;;;;;;;;;;4913962;29;20215;-85
2021/11/08 03:55:03;;;;;;;10.80;4.60;;;;;;;;;;4924878;29;20184;-85
2021/11/08 03:58:07;;;;;;;10.43;4.93;;;;;;;;;;4924672;29;20188;-85
2021/11/08 04:01:12;;;;;;;9.17;5.17;;;;;;;;;;4927544;23;20572;-87
2021/11/08 04:04:16;;;;;;;8.03;5.00;;;;;;;;;;4889605;29;20178;-87
2021/11/08 04:07:20;;;;;;;7.30;5.00;;;;;;;;;;4900061;29;20268;-87
2021/11/08 04:10:25;;;;;;;11.10;5.50;;;;;;;;;;4893927;29;20591;-84
2021/11/08 04:13:34;;;;;;;11.67;6.10;;;;;;;;;;4886664;29;20192;-84
2021/11/08 04:16:40;;;;;;;11.53;6.30;;;;;;;;;;4921465;29;20541;-84
2021/11/08 04:19:46;;;;;;;9.30;5.57;;;;;;;;;;4899723;29;20224;-84
2021/11/08 04:22:53;;;;;;;8.93;5.43;;;;;;;;;;4911419;29;20192;-84
2021/11/08 04:25:58;;;;;;;15.80;6.57;;;;;;;;;;4900424;29;20181;-84
2021/11/08 04:29:04;;;;;;;12.00;5.70;;;;;;;;;;4910328;29;20624;-84
2021/11/08 04:32:09;;;;;;;10.77;5.87;;;;;;;;;;4910202;29;20225;-84
2021/11/08 04:35:18;;;;;;;11.20;6.23;;;;;;;;;;4899589;29;20200;-84
2021/11/08 04:45:32;;;;;;;9.77;5.47;;;;;;;;;;4909898;29;20589;-84
2021/11/08 04:48:54;;;;;;;8.90;4.93;;;;;;;;;;4909426;29;20204;-84
2021/11/08 05:31:51;;;;;;;14.23;6.30;;;;;;;;;;4908468;29;20640;-85
2021/11/08 05:34:55;;;;;;;12.70;6.00;;;;;;;;;;4911262;29;20597;-85
2021/11/08 05:37:59;;;;;;;11.97;5.80;;;;;;;;;;4903382;29;20590;-84
2021/11/08 05:41:03;;;;;;;6.83;5.20;;;;;;;;;;4909628;29;20645;-84
2021/11/08 05:44:08;;;;;;;8.43;5.97;;;;;;;;;;4897766;29;20601;-84
2021/11/08 05:47:12;;;;;;;12.37;6.00;;;;;;;;;;4909015;29;20593;-84
2021/11/08 05:50:21;;;;;;;12.20;6.27;;;;;;;;;;4908020;29;20648;-84
2021/11/08 05:53:25;;;;;;;12.53;6.37;;;;;;;;;;4908779;29;20677;-84
2021/11/08 05:56:35;;;;;;;15.73;6.93;;;;;;;;;;4918789;29;20622;-84
2021/11/08 06:50:58;;;;;;;9.47;5.87;;;;;;;;;;4850034;29;20639;-84
2021/11/08 06:54:04;;;;;;;12.87;6.00;;;;;;;;;;4839610;29;20604;-84
2021/11/08 06:57:13;;;;;;;9.03;6.30;;;;;;;;;;4890694;29;20543;-85
2021/11/08 07:00:20;;;;;;;10.43;5.33;;;;;;;;;;4884113;29;20668;-85
2021/11/08 07:03:24;;;;;;;11.57;5.70;;;;;;;;;;4885312;29;20596;-84
2021/11/08 07:06:29;;;;;;;10.17;5.30;;;;;;;;;;4896690;29;20593;-86
2021/11/08 07:09:33;;;;;;;9.10;5.90;;;;;;;;;;4916811;29;20645;-84
2021/11/08 07:12:38;;;;;;;13.67;6.77;;;;;;;;;;4885367;29;20629;-84
2021/11/08 07:15:43;;;;;;;13.17;5.67;;;;;;;;;;4918280;29;20609;-84
2021/11/08 07:18:47;;;;;;;9.87;5.60;;;;;;;;;;4907302;29;21143;-84
2021/11/08 07:21:51;;;;;;;8.73;5.87;;;;;;;;;;4906257;29;20937;-85
2021/11/08 07:24:55;;;;;;;7.57;4.97;;;;;;;;;;4899661;29;20587;-84
2021/11/08 07:28:00;;;;;;;11.57;6.10;;;;;;;;;;4899651;29;20549;-85
2021/11/08 07:31:04;;;;;;;19.17;6.07;;;;;;;;;;4909665;29;20660;-85
2021/11/08 07:34:09;;;;;;;8.83;5.83;;;;;;;;;;4898905;29;20609;-85
2021/11/08 07:37:13;;;;;;;11.40;7.20;;;;;;;;;;4899142;29;20201;-84
2021/11/08 07:40:17;;;;;;;9.57;6.00;;;;;;;;;;4899192;29;20612;-85
2021/11/08 07:43:21;;;;;;;13.03;6.70;;;;;;;;;;4909606;29;20592;-84
2021/11/08 07:46:25;;;;;;;12.97;6.67;;;;;;;;;;4880873;29;20346;-84
2021/11/08 07:49:29;;;;;;;9.20;6.33;;;;;;;;;;4892130;29;20228;-84
2021/11/08 07:52:33;;;;;;;17.90;6.97;;;;;;;;;;4870000;29;20213;-84
2021/11/08 07:55:38;;;;;;;16.43;6.70;;;;;;;;;;4897440;29;20197;-84
2021/11/08 07:58:43;;;;;;;14.07;7.07;;;;;;;;;;4899276;29;20185;-84
2021/11/08 08:01:48;;;;;;;19.13;8.47;;;;;;;;;;4909964;29;20169;-85
2021/11/08 08:04:53;;;;;;;56.93;26.93;;;;;;;;;;4899409;29;20181;-85
2021/11/08 08:07:57;;;;;;;36.43;19.63;;;;;;;;;;4908971;29;20197;-85
2021/11/08 08:11:04;;;;;;;18.83;13.00;;;;;;;;;;4898875;29;20220;-85
2021/11/08 08:14:07;;;;;;;13.87;8.80;;;;;;;;;;4909693;29;20181;-85
2021/11/08 08:17:11;;;;;;;19.60;7.13;;;;;;;;;;4897803;29;20200;-85
2021/11/08 08:20:19;;;;;;;15.93;6.33;;;;;;;;;;4898716;29;20217;-85
2021/11/08 08:23:23;;;;;;;15.70;7.50;;;;;;;;;;4897842;29;20185;-85
2021/11/08 08:26:32;;;;;;;14.87;6.80;;;;;;;;;;4888185;29;20189;-85
2021/11/08 08:29:36;;;;;;;13.87;6.37;;;;;;;;;;4909036;29;20229;-85
2021/11/08 08:32:41;;;;;;;11.97;6.07;;;;;;;;;;4909489;29;20209;-85
2021/11/08 08:35:45;;;;;;;13.97;6.57;;;;;;;;;;4909588;29;20200;-85
2021/11/08 08:38:50;;;;;;;14.67;6.53;;;;;;;;;;4898129;29;20212;-84
2021/11/08 08:41:54;;;;;;;13.40;6.87;;;;;;;;;;4918988;29;20657;-85
2021/11/08 08:44:59;;;;;;;15.27;8.83;;;;;;;;;;4908434;29;20200;-85
2021/11/08 08:48:05;;;;;;;18.80;8.00;;;;;;;;;;4897497;29;20189;-85
2021/11/08 08:51:09;;;;;;;13.90;7.07;;;;;;;;;;4908287;29;20221;-85
2021/11/08 08:54:13;;;;;;;16.33;5.80;;;;;;;;;;4908731;29;20533;-85
2021/11/08 08:57:19;;;;;;;15.20;6.30;;;;;;;;;;4908351;29;20197;-85
2021/11/08 09:00:23;;;;;;;12.03;6.60;;;;;;;;;;4897425;29;20695;-85
2021/11/08 09:03:27;;;;;;;13.00;5.93;;;;;;;;;;4898128;29;20200;-85
2021/11/08 09:06:32;;;;;;;15.20;6.87;;;;;;;;;;4908549;29;20200;-85
2021/11/08 09:09:37;;;;;;;14.57;7.70;;;;;;;;;;4908096;29;20699;-85
2021/11/08 09:12:41;;;;;;;18.43;7.33;;;;;;;;;;4897265;29;20571;-85
2021/11/08 09:15:47;;;;;;;9.73;5.97;;;;;;;;;;4918897;29;20188;-85
2021/11/08 09:18:54;;;;;;;13.00;6.07;;;;;;;;;;4897514;29;20197;-85
2021/11/08 09:21:59;;;;;;;10.43;5.57;;;;;;;;;;4908026;29;20185;-85
2021/11/08 09:25:04;;;;;;;15.30;6.50;;;;;;;;;;4907876;29;20193;-85
2021/11/08 09:28:09;;;;;;;16.13;6.20;;;;;;;;;;4897455;29;20197;-85
2021/11/08 09:31:13;;;;;;;14.00;5.60;;;;;;;;;;4898118;29;20221;-85
2021/11/08 09:34:21;;;;;;;13.77;5.70;;;;;;;;;;4889999;29;20190;-85
2021/11/08 09:37:31;;;;;;;16.47;6.27;;;;;;;;;;4902205;29;20204;-85
2021/11/08 09:40:37;;;;;;;13.73;5.87;;;;;;;;;;4898475;29;20249;-85
2021/11/08 09:43:42;;;;;;;16.67;5.40;;;;;;;;;;4908665;29;20197;-85
2021/11/08 09:46:51;;;;;;;10.47;5.07;;;;;;;;;;4908419;29;20201;-84
2021/11/08 09:49:59;;;;;;;11.10;5.00;;;;;;;;;;4898933;29;20220;-85
2021/11/08 09:53:06;;;;;;;16.53;5.37;;;;;;;;;;4908415;29;20221;-85
2021/11/08 09:56:13;;;;;;;12.70;5.00;;;;;;;;;;4887189;29;20181;-85
2021/11/08 09:59:18;;;;;;;10.93;5.03;;;;;;;;;;4897215;29;20196;-85
2021/11/08 10:02:22;;;;;;;13.43;5.03;;;;;;;;;;4964678;23;20700;-70
2021/11/08 10:05:29;;;;;;;11.53;4.90;;;;;;;;;;4952051;28;20179;-70
2021/11/08 10:08:38;;;;;;;16.23;4.20;;;;;;;;;;4956369;29;20516;-70
2021/11/08 10:11:46;;;;;;;12.63;4.20;;;;;;;;;;4961538;28;20227;-70
2021/11/08 10:14:50;;;;;;;11.83;4.70;;;;;;;;;;4975006;28;20203;-70
2021/11/08 10:17:54;;;;;;;10.03;3.80;;;;;;;;;;4955650;28;20195;-70
2021/11/08 10:21:04;;;;;;;10.47;4.33;;;;;;;;;;4956428;28;20215;-70
2021/11/08 10:24:11;;;;;;;10.43;3.80;;;;;;;;;;4943553;29;20548;-70
2021/11/08 10:27:18;;;;;;;12.20;4.43;;;;;;;;;;4965164;28;20207;-70
2021/11/08 10:30:32;;;;;;;11.47;4.03;;;;;;;;;;4974486;28;20179;-70
2021/11/08 10:33:39;;;;;;;14.07;5.10;;;;;;;;;;4955222;29;20701;-70
2021/11/08 10:36:45;;;;;;;11.87;4.07;;;;;;;;;;4943631;29;20187;-70
2021/11/08 10:39:50;;;;;;;15.73;4.37;;;;;;;;;;4956510;28;20540;-70
2021/11/08 10:42:56;;;;;;;10.17;3.67;;;;;;;;;;4943952;29;20528;-70
2021/11/08 10:46:08;;;;;;;11.20;3.87;;;;;;;;;;4956192;28;20659;-70
2021/11/08 10:49:16;;;;;;;9.37;3.60;;;;;;;;;;4962748;28;20661;-70
2021/11/08 10:52:32;;;;;;;15.63;4.03;;;;;;;;;;4972570;28;20219;-70
2021/11/08 10:55:36;;;;;;;12.50;4.40;;;;;;;;;;4965960;28;20198;-70
2021/11/08 10:58:46;;;;;;;18.63;3.30;;;;;;;;;;4961503;29;20183;-70
2021/11/08 11:01:55;;;;;;;10.03;3.30;;;;;;;;;;4965864;28;20234;-70
2021/11/08 11:05:04;;;;;;;11.20;3.10;;;;;;;;;;4966059;28;20206;-70
2021/11/08 11:08:14;;;;;;;12.10;3.37;;;;;;;;;;4966638;28;20199;-71
2021/11/08 11:11:24;;;;;;;12.37;2.97;;;;;;;;;;4961298;28;20226;-70
2021/11/08 11:14:44;;;;;;;9.47;3.07;;;;;;;;;;4959460;28;20708;-70
2021/11/08 11:17:55;;;;;;;11.27;4.03;;;;;;;;;;4980971;28;20520;-70
2021/11/08 11:21:20;;;;;;;11.07;3.47;;;;;;;;;;4980636;28;20222;-70
2021/11/08 11:24:42;;;;;;;10.80;2.80;;;;;;;;;;4971588;28;20195;-70
2021/11/08 11:27:49;;;;;;;10.30;2.73;;;;;;;;;;4962170;28;20567;-70
2021/11/08 11:30:55;;;;;;;14.30;3.20;;;;;;;;;;4961091;28;20219;-70
2021/11/08 11:34:13;;;;;;;9.67;3.00;;;;;;;;;;4950632;28;20207;-70
2021/11/08 11:37:20;;;;;;;10.33;2.50;;;;;;;;;;4973359;28;20190;-70
2021/11/08 11:40:24;;;;;;;8.70;2.73;;;;;;;;;;4952958;28;20188;-70
2021/11/08 11:43:35;;;;;;;11.93;2.73;;;;;;;;;;4961261;29;20183;-70
2021/11/08 11:46:45;;;;;;;12.13;2.93;;;;;;;;;;4961180;28;20203;-70
2021/11/08 11:49:49;;;;;;;9.73;2.70;;;;;;;;;;4963087;28;20195;-70
2021/11/08 11:52:53;;;;;;;12.47;2.60;;;;;;;;;;4980666;28;20214;-70
2021/11/08 11:55:57;;;;;;;13.90;2.53;;;;;;;;;;4967590;28;20199;-70
2021/11/08 11:59:04;;;;;;;8.37;3.03;;;;;;;;;;4975411;28;20202;-70
2021/11/08 12:02:08;;;;;;;8.27;3.70;;;;;;;;;;4980203;28;20222;-70
2021/11/08 12:05:12;;;;;;;9.57;3.03;;;;;;;;;;4949718;28;20199;-70
2021/11/08 12:08:16;;;;;;;7.63;2.27;;;;;;;;;;4947752;28;20199;-70
2021/11/08 12:11:32;;;;;;;12.50;2.60;;;;;;;;;;4967641;28;20248;-70
2021/11/08 12:14:37;;;;;;;6.27;2.40;;;;;;;;;;4974769;28;20568;-70
2021/11/08 12:17:47;;;;;;;15.77;2.70;;;;;;;;;;4961572;28;20184;-70
2021/11/08 12:20:53;;;;;;;9.33;2.80;;;;;;;;;;4961196;28;20222;-70
2021/11/08 12:23:59;;;;;;;9.00;2.73;;;;;;;;;;4957668;29;20180;-70
2021/11/08 12:27:12;;;;;;;10.67;3.00;;;;;;;;;;4958607;28;20208;-70
2021/11/08 12:30:21;;;;;;;8.73;2.67;;;;;;;;;;4960300;28;20194;-70
2021/11/08 12:33:32;;;;;;;9.80;3.10;;;;;;;;;;4957820;29;20562;-70
2021/11/08 12:36:36;;;;;;;10.03;3.10;;;;;;;;;;4945681;28;20200;-70
2021/11/08 12:39:54;;;;;;;10.13;2.83;;;;;;;;;;4969860;28;20187;-70
2021/11/08 12:42:59;;;;;;;16.97;3.90;;;;;;;;;;4947882;29;20196;-70
2021/11/08 12:46:21;;;;;;;10.87;2.90;;;;;;;;;;4972043;28;20190;-70
2021/11/08 12:49:32;;;;;;;10.67;2.63;;;;;;;;;;4976441;28;20183;-70
2021/11/08 12:52:41;;;;;;;11.30;2.90;;;;;;;;;;4962747;28;20223;-70
2021/11/08 12:55:46;;;;;;;12.40;2.70;;;;;;;;;;4945782;29;20192;-70
2021/11/08 12:58:56;;;;;;;13.17;3.20;;;;;;;;;;4957482;29;20626;-70
2021/11/08 13:02:10;;;;;;;8.67;2.80;;;;;;;;;;4959938;28;20235;-70
2021/11/08 13:05:30;;;;;;;13.67;3.40;;;;;;;;;;4958141;28;20187;-70
2021/11/08 13:08:35;;;;;;;11.57;2.57;;;;;;;;;;4945497;29;20188;-70
2021/11/08 13:11:48;;;;;;;9.40;2.47;;;;;;;;;;4961670;28;20223;-70
2021/11/08 13:15:03;;;;;;;12.43;2.60;;;;;;;;;;4956454;29;20706;-70
2021/11/08 13:18:10;;;;;;;9.63;2.70;;;;;;;;;;4953996;28;20535;-70
2021/11/08 13:21:22;;;;;;;9.70;2.70;;;;;;;;;;4943715;29;20219;-70
2021/11/08 13:24:30;;;;;;;9.07;2.80;;;;;;;;;;4957038;29;20183;-70
2021/11/08 13:27:36;;;;;;;13.50;3.10;;;;;;;;;;4957081;28;20562;-70
2021/11/08 13:30:44;;;;;;;11.03;2.90;;;;;;;;;;4974105;28;20709;-70
2021/11/08 13:33:51;;;;;;;15.27;3.77;;;;;;;;;;4956775;29;20215;-70
2021/11/08 13:37:00;;;;;;;10.13;3.40;;;;;;;;;;4956574;29;20183;-70
2021/11/08 13:40:17;;;;;;;15.07;4.03;;;;;;;;;;4969955;28;20195;-70
2021/11/08 13:43:39;;;;;;;19.37;6.00;;;;;;;;;;4976002;28;20183;-70
2021/11/08 13:46:49;;;;;;;10.90;4.00;;;;;;;;;;4975581;28;20183;-70
2021/11/08 13:49:53;;;;;;;10.70;4.00;;;;;;;;;;4951101;29;20191;-70
2021/11/08 13:52:56;;;;;;;12.63;4.27;;;;;;;;;;4956183;29;20180;-70
2021/11/08 13:56:04;;;;;;;10.70;4.77;;;;;;;;;;4960059;28;20527;-70
2021/11/08 13:59:17;;;;;;;10.07;4.20;;;;;;;;;;4967164;28;20195;-70
2021/11/08 14:02:23;;;;;;;10.53;4.50;;;;;;;;;;4955664;29;20219;-70
2021/11/08 14:05:27;;;;;;;13.37;4.50;;;;;;;;;;4955943;29;20662;-70
2021/11/08 14:08:32;;;;;;;12.20;4.20;;;;;;;;;;4961549;28;20638;-70
2021/11/08 14:11:38;;;;;;;9.43;3.13;;;;;;;;;;4966513;28;20234;-70
2021/11/08 14:14:43;;;;;;;8.43;3.50;;;;;;;;;;4958954;28;20218;-70
2021/11/08 14:17:47;;;;;;;9.83;3.27;;;;;;;;;;4959769;28;20183;-70
2021/11/08 14:21:06;;;;;;;13.13;3.50;;;;;;;;;;4961451;28;20566;-74
2021/11/08 14:24:13;;;;;;;9.27;3.20;;;;;;;;;;4956470;28;20187;-74
2021/11/08 14:27:20;;;;;;;8.63;3.17;;;;;;;;;;4946413;28;20195;-74
2021/11/08 14:30:26;;;;;;;9.53;3.47;;;;;;;;;;4974720;28;20191;-73
2021/11/08 14:33:30;;;;;;;8.30;2.77;;;;;;;;;;4974534;28;20183;-74
2021/11/08 14:36:47;;;;;;;9.13;3.50;;;;;;;;;;4975315;28;20190;-74
2021/11/08 14:39:52;;;;;;;7.20;3.33;;;;;;;;;;4951773;28;20187;-74
2021/11/08 14:42:56;;;;;;;8.33;2.80;;;;;;;;;;4962968;28;20558;-74
2021/11/08 14:46:03;;;;;;;8.47;2.70;;;;;;;;;;4974429;28;20622;-74
2021/11/08 14:49:10;;;;;;;10.47;3.10;;;;;;;;;;4951487;28;20183;-74
2021/11/08 14:52:14;;;;;;;7.30;3.07;;;;;;;;;;4974222;28;20223;-74
2021/11/08 14:55:22;;;;;;;11.47;2.80;;;;;;;;;;4974206;28;20222;-74
2021/11/08 14:58:26;;;;;;;7.07;2.67;;;;;;;;;;4974482;28;20199;-74
2021/11/08 15:01:30;;;;;;;27.43;14.50;;;;;;;;;;4951237;28;20563;-74
2021/11/08 15:04:44;;;;;;;20.23;6.13;;;;;;;;;;4974438;28;20171;-74
2021/11/08 15:07:58;;;;;;;8.97;3.87;;;;;;;;;;4962278;28;20195;-74
2021/11/08 15:11:02;;;;;;;8.97;3.30;;;;;;;;;;4974351;28;20214;-74
2021/11/08 15:14:15;;;;;;;10.33;3.63;;;;;;;;;;4951068;28;20210;-73
2021/11/08 15:17:51;;;;;;;7.83;2.97;;;;;;;;;;4974078;28;20179;-73
2021/11/08 15:20:56;;;;;;;12.80;3.63;;;;;;;;;;4962002;28;20215;-73
2021/11/08 15:24:10;;;;;;;14.50;4.00;;;;;;;;;;4961567;28;20195;-74
2021/11/08 15:27:14;;;;;;;10.30;3.07;;;;;;;;;;4974582;28;20635;-73
2021/11/08 15:30:18;;;;;;;13.07;3.10;;;;;;;;;;4962254;28;20199;-74
2021/11/08 15:33:28;;;;;;;7.47;2.87;;;;;;;;;;4970166;28;20191;-73
2021/11/08 15:36:41;;;;;;;8.83;2.80;;;;;;;;;;4965509;28;20192;-73
2021/11/08 15:39:45;;;;;;;7.70;2.90;;;;;;;;;;4957601;28;20604;-73
2021/11/08 15:42:49;;;;;;;7.80;2.90;;;;;;;;;;4966258;28;20188;-73
2021/11/08 15:46:00;;;;;;;9.20;3.70;;;;;;;;;;4951285;28;20195;-73
2021/11/08 15:49:09;;;;;;;10.23;3.37;;;;;;;;;;4964867;28;20175;-74
2021/11/08 15:52:13;;;;;;;10.97;3.50;;;;;;;;;;4951226;28;20214;-73
2021/11/08 15:55:19;;;;;;;11.60;3.33;;;;;;;;;;4961402;28;20695;-73
2021/11/08 15:58:23;;;;;;;6.03;3.30;;;;;;;;;;4961700;28;20186;-73
2021/11/08 16:01:27;;;;;;;9.77;3.27;;;;;;;;;;4950481;28;20234;-74
2021/11/08 16:04:31;;;;;;;10.43;3.43;;;;;;;;;;4961272;28;20183;-73
2021/11/08 16:07:36;;;;;;;10.03;3.50;;;;;;;;;;4973578;28;20229;-73
2021/11/08 16:10:40;;;;;;;5.27;2.97;;;;;;;;;;4973335;28;20223;-73
2021/11/08 16:13:44;;;;;;;9.93;3.83;;;;;;;;;;4961503;28;20179;-73
2021/11/08 16:16:49;;;;;;;8.97;3.30;;;;;;;;;;4973431;28;20190;-73
2021/11/08 16:19:53;;;;;;;13.50;3.60;;;;;;;;;;4973330;28;20187;-73
2021/11/08 16:22:57;;;;;;;12.43;3.50;;;;;;;;;;4961335;28;20202;-73
2021/11/08 16:26:01;;;;;;;12.37;3.77;;;;;;;;;;4961315;28;20591;-73
2021/11/08 16:29:07;;;;;;;7.97;3.23;;;;;;;;;;4960699;28;20650;-73
2021/11/08 16:32:19;;;;;;;10.63;3.60;;;;;;;;;;4972990;28;20214;-73
2021/11/08 16:35:30;;;;;;;11.00;3.00;;;;;;;;;;4973020;28;20207;-73
2021/11/08 16:38:34;;;;;;;7.40;3.40;;;;;;;;;;4961099;28;20183;-73
2021/11/08 16:41:38;;;;;;;7.57;3.03;;;;;;;;;;4972600;28;20215;-73
2021/11/08 16:44:42;;;;;;;14.37;3.33;;;;;;;;;;4972779;28;20183;-73
2021/11/08 16:47:47;;;;;;;9.30;3.00;;;;;;;;;;4972971;28;20187;-73
2021/11/08 16:50:51;;;;;;;9.10;3.10;;;;;;;;;;4972640;28;20214;-73
2021/11/08 16:54:02;;;;;;;16.70;3.70;;;;;;;;;;4949662;28;20188;-73
2021/11/08 16:57:06;;;;;;;11.13;3.47;;;;;;;;;;4960663;28;20187;-73
2021/11/08 17:00:12;;;;;;;11.15;3.25;;;;;;;;;;4960723;28;20894;-73
2021/11/08 17:03:20;;;;;;;8.70;3.40;;;;;;;;;;4949051;28;20198;-75
2021/11/08 17:06:26;;;;;;;7.10;3.23;;;;;;;;;;4972355;28;20205;-73
2021/11/08 17:09:50;;;;;;;7.50;3.27;;;;;;;;;;4960654;28;20202;-73
2021/11/08 17:13:16;;;;;;;12.57;3.53;;;;;;;;;;4972288;28;20187;-73
2021/11/08 17:16:21;;;;;;;8.00;3.23;;;;;;;;;;4959833;28;20207;-73
2021/11/08 17:19:26;;;;;;;9.07;3.30;;;;;;;;;;4972345;28;20181;-73
2021/11/08 17:22:30;;;;;;;13.20;3.60;;;;;;;;;;4972256;28;20222;-73
2021/11/08 17:25:34;;;;;;;10.33;3.30;;;;;;;;;;4972048;28;20183;-73
2021/11/08 17:28:40;;;;;;;8.57;3.40;;;;;;;;;;4959774;28;20523;-73
2021/11/08 17:31:45;;;;;;;7.57;3.10;;;;;;;;;;4971978;28;20222;-73
2021/11/08 17:34:50;;;;;;;9.87;3.10;;;;;;;;;;4971837;28;20210;-73
2021/11/08 17:37:55;;;;;;;6.57;3.10;;;;;;;;;;4971851;28;20183;-73
2021/11/08 17:40:59;;;;;;;8.77;3.50;;;;;;;;;;4959621;28;20215;-74
2021/11/08 17:44:04;;;;;;;9.83;3.10;;;;;;;;;;4971862;28;20562;-73
2021/11/08 17:47:10;;;;;;;6.67;3.27;;;;;;;;;;4971484;28;20610;-73
2021/11/08 17:50:18;;;;;;;9.57;3.33;;;;;;;;;;4971495;28;20635;-73
2021/11/08 17:53:25;;;;;;;11.60;3.60;;;;;;;;;;4948298;28;20558;-73
2021/11/08 17:56:29;;;;;;;12.93;3.70;;;;;;;;;;4971504;28;20622;-73
2021/11/08 17:59:35;;;;;;;7.87;3.60;;;;;;;;;;4948494;28;20566;-73
2021/11/08 18:02:40;;;;;;;9.27;3.40;;;;;;;;;;4959474;28;20226;-74
2021/11/08 18:05:48;;;;;;;7.47;3.17;;;;;;;;;;4971172;28;20593;-73
2021/11/08 18:08:54;;;;;;;10.33;4.20;;;;;;;;;;4971404;28;21139;-73
2021/11/08 18:11:58;;;;;;;14.60;4.17;;;;;;;;;;4959232;28;20939;-73
2021/11/08 18:15:03;;;;;;;7.17;3.67;;;;;;;;;;4959352;28;20630;-73
2021/11/08 18:18:09;;;;;;;12.17;3.77;;;;;;;;;;4959226;28;20610;-73
2021/11/08 18:27:24;;;;;;;12.60;3.97;;;;;;;;;;4970755;28;20906;-74
2021/11/08 18:30:30;;;;;;;9.70;4.27;;;;;;;;;;4970838;28;20566;-74
2021/11/08 18:33:35;;;;;;;12.03;4.67;;;;;;;;;;4958930;28;20574;-73
2021/11/08 18:36:41;;;;;;;8.40;3.70;;;;;;;;;;4970849;28;20214;-74
2021/11/08 18:39:45;;;;;;;8.67;4.13;;;;;;;;;;4970502;28;20562;-74
2021/11/08 18:42:50;;;;;;;8.63;3.90;;;;;;;;;;4958853;28;20570;-74
2021/11/08 18:45:54;;;;;;;7.17;4.03;;;;;;;;;;4958924;28;20903;-74
2021/11/08 18:48:58;;;;;;;15.33;4.40;;;;;;;;;;4958875;28;20566;-74
2021/11/08 18:52:05;;;;;;;8.40;4.10;;;;;;;;;;4958355;28;21207;-74
2021/11/08 18:55:10;;;;;;;6.77;4.00;;;;;;;;;;4947717;28;20985;-73
2021/11/08 18:58:15;;;;;;;8.67;3.90;;;;;;;;;;4958659;28;20914;-73
2021/11/08 19:01:24;;;;;;;8.93;4.03;;;;;;;;;;4970502;28;21017;-74
2021/11/08 19:10:50;;;;;;;8.67;4.10;;;;;;;;;;4970624;28;20630;-73
2021/11/08 19:13:55;;;;;;;11.00;3.70;;;;;;;;;;4970390;28;20601;-74
2021/11/08 19:17:01;;;;;;;8.87;4.30;;;;;;;;;;4970110;28;20618;-73
2021/11/08 19:20:06;;;;;;;8.50;4.13;;;;;;;;;;4962434;28;20570;-74
2021/11/08 19:23:10;;;;;;;9.73;3.93;;;;;;;;;;4974341;28;20570;-73
2021/11/08 19:26:14;;;;;;;9.67;3.97;;;;;;;;;;4974227;28;20570;-73
2021/11/08 19:32:33;;;;;;;13.17;4.80;;;;;;;;;;4974228;28;21219;-73
2021/11/08 19:39:10;;;;;;;6.50;4.27;;;;;;;;;;4951316;28;20578;-73
2021/11/08 19:42:15;;;;;;;10.87;3.87;;;;;;;;;;4973885;28;20633;-74
2021/11/08 19:45:21;;;;;;;6.73;4.37;;;;;;;;;;4961999;28;21101;-74
2021/11/08 19:48:25;;;;;;;10.00;3.57;;;;;;;;;;4962126;28;20570;-74
2021/11/08 19:51:29;;;;;;;10.87;4.23;;;;;;;;;;4973455;28;20630;-73
2021/11/08 19:54:34;;;;;;;7.83;3.60;;;;;;;;;;4961823;28;20570;-74
2021/11/08 19:57:39;;;;;;;9.37;3.47;;;;;;;;;;4961703;28;21153;-74
2021/11/08 20:00:45;;;;;;;11.17;4.03;;;;;;;;;;4961673;28;20626;-74
2021/11/08 20:03:54;;;;;;;9.60;3.57;;;;;;;;;;4950295;28;20918;-73
2021/11/08 20:07:19;;;;;;;8.03;3.70;;;;;;;;;;4961900;28;20566;-74
2021/11/08 20:10:24;;;;;;;11.20;4.07;;;;;;;;;;4961428;28;20805;-74
2021/11/08 20:13:38;;;;;;;8.30;3.73;;;;;;;;;;4961499;28;20566;-74
2021/11/08 20:16:44;;;;;;;11.37;3.93;;;;;;;;;;4961151;28;20610;-74
2021/11/08 20:19:48;;;;;;;5.53;3.40;;;;;;;;;;4961410;28;20601;-74
2021/11/08 20:22:53;;;;;;;7.53;3.67;;;;;;;;;;4961367;28;20570;-73
2021/11/08 20:25:59;;;;;;;13.50;3.70;;;;;;;;;;4972947;28;20598;-74
2021/11/08 20:29:10;;;;;;;8.23;3.97;;;;;;;;;;4972500;28;20558;-74
2021/11/08 20:32:20;;;;;;;11.33;4.40;;;;;;;;;;4961152;28;20626;-74